sensor_id;sensor_type;location;lat;lon;timestamp;temperature;humidity
2010;DHT22;1008;47.404;8.502;2023-05-07T00:00:20;17.30;99.90
2010;DHT22;1008;47.404;8.502;2023-05-07T00:02:47;17.20;99.90
2010;DHT22;1008;47.404;8.502;2023-05-07T00:05:14;17.20;99.90
2010;DHT22;1008;47.404;8.502;2023-05-07T00:07:41;17.30;99.90
2010;DHT22;1008;47.404;8.502;2023-05-07T00:10:08;17.20;99.90
2010;DHT22;1008;47.404;8.502;2023-05-07T00:12:35;17.20;99.90
2010;DHT22;1008;47.404;8.502;2023-05-07T00:15:02;17.30;99.90
2010;DHT22;1008;47.404;8.502;2023-05-07T00:17:32;17.20;99.90
2010;DHT22;1008;47.404;8.502;2023-05-07T00:19:59;17.40;99.90
2010;DHT22;1008;47.404;8.502;2023-05-07T00:22:25;17.40;99.90
2010;DHT22;1008;47.404;8.502;2023-05-07T00:24:52;17.50;99.90
2010;DHT22;1008;47.404;8.502;2023-05-07T00:27:19;17.40;99.90
2010;DHT22;1008;47.404;8.502;2023-05-07T00:29:45;17.50;99.90
2010;DHT22;1008;47.404;8.502;2023-05-07T00:32:12;17.40;99.90
2010;DHT22;1008;47.404;8.502;2023-05-07T00:34:40;17.70;99.90
2010;DHT22;1008;47.404;8.502;2023-05-07T00:37:07;17.60;99.90
2010;DHT22;1008;47.404;8.502;2023-05-07T00:39:34;17.50;99.90
2010;DHT22;1008;47.404;8.502;2023-05-07T00:42:01;17.60;99.90
2010;DHT22;1008;47.404;8.502;2023-05-07T00:44:28;17.50;99.90
2010;DHT22;1008;47.404;8.502;2023-05-07T00:46:55;17.40;99.90
2010;DHT22;1008;47.404;8.502;2023-05-07T00:49:29;17.40;99.90
2010;DHT22;1008;47.404;8.502;2023-05-07T00:52:00;17.30;99.90
2010;DHT22;1008;47.404;8.502;2023-05-07T00:54:27;17.20;99.90
2010;DHT22;1008;47.404;8.502;2023-05-07T00:56:54;17.10;99.90
2010;DHT22;1008;47.404;8.502;2023-05-07T00:59:21;17.20;99.90
2010;DHT22;1008;47.404;8.502;2023-05-07T01:01:48;17.30;99.90
2010;DHT22;1008;47.404;8.502;2023-05-07T01:04:15;17.30;99.90
2010;DHT22;1008;47.404;8.502;2023-05-07T01:06:42;17.40;99.90
2010;DHT22;1008;47.404;8.502;2023-05-07T01:09:11;17.40;99.90
2010;DHT22;1008;47.404;8.502;2023-05-07T01:11:39;17.50;99.90
2010;DHT22;1008;47.404;8.502;2023-05-07T01:14:07;17.60;99.90
2010;DHT22;1008;47.404;8.502;2023-05-07T01:16:35;17.40;99.90
2010;DHT22;1008;47.404;8.502;2023-05-07T01:19:03;17.30;99.90
2010;DHT22;1008;47.404;8.502;2023-05-07T01:21:33;17.30;99.90
2010;DHT22;1008;47.404;8.502;2023-05-07T01:24:01;17.60;99.90
2010;DHT22;1008;47.404;8.502;2023-05-07T01:26:28;17.50;99.90
2010;DHT22;1008;47.404;8.502;2023-05-07T01:28:55;17.30;99.90
2010;DHT22;1008;47.404;8.502;2023-05-07T01:31:24;17.30;99.90
2010;DHT22;1008;47.404;8.502;2023-05-07T01:33:52;17.10;99.90
2010;DHT22;1008;47.404;8.502;2023-05-07T01:36:20;17.00;99.90
2010;DHT22;1008;47.404;8.502;2023-05-07T01:38:49;17.00;99.90
2010;DHT22;1008;47.404;8.502;2023-05-07T01:41:19;16.80;99.90
2010;DHT22;1008;47.404;8.502;2023-05-07T01:43:47;16.80;99.90
2010;DHT22;1008;47.404;8.502;2023-05-07T01:46:15;16.70;99.90
2010;DHT22;1008;47.404;8.502;2023-05-07T01:48:42;16.60;99.90
2010;DHT22;1008;47.404;8.502;2023-05-07T01:51:11;16.60;99.90
2010;DHT22;1008;47.404;8.502;2023-05-07T01:53:39;16.50;99.90
2010;DHT22;1008;47.404;8.502;2023-05-07T01:56:06;16.50;99.90
2010;DHT22;1008;47.404;8.502;2023-05-07T01:58:34;16.50;99.90
2010;DHT22;1008;47.404;8.502;2023-05-07T02:01:01;16.60;99.90
2010;DHT22;1008;47.404;8.502;2023-05-07T02:03:28;16.70;99.90
2010;DHT22;1008;47.404;8.502;2023-05-07T02:05:54;16.50;99.90
2010;DHT22;1008;47.404;8.502;2023-05-07T02:08:21;16.50;99.90
2010;DHT22;1008;47.404;8.502;2023-05-07T02:10:48;16.60;99.90
2010;DHT22;1008;47.404;8.502;2023-05-07T02:13:15;16.60;99.90
2010;DHT22;1008;47.404;8.502;2023-05-07T02:15:43;16.60;99.90
2010;DHT22;1008;47.404;8.502;2023-05-07T02:18:15;16.60;99.90
2010;DHT22;1008;47.404;8.502;2023-05-07T02:20:42;16.80;99.90
2010;DHT22;1008;47.404;8.502;2023-05-07T02:23:09;16.70;99.90
2010;DHT22;1008;47.404;8.502;2023-05-07T02:25:36;16.70;99.90
2010;DHT22;1008;47.404;8.502;2023-05-07T02:28:02;17.00;99.90
2010;DHT22;1008;47.404;8.502;2023-05-07T02:30:29;16.60;99.90
2010;DHT22;1008;47.404;8.502;2023-05-07T02:32:57;16.70;99.90
2010;DHT22;1008;47.404;8.502;2023-05-07T02:35:24;16.70;99.90
2010;DHT22;1008;47.404;8.502;2023-05-07T02:37:51;16.60;99.90
2010;DHT22;1008;47.404;8.502;2023-05-07T02:40:18;16.90;99.90
2010;DHT22;1008;47.404;8.502;2023-05-07T02:42:45;16.50;99.90
2010;DHT22;1008;47.404;8.502;2023-05-07T02:45:12;16.60;99.90
2010;DHT22;1008;47.404;8.502;2023-05-07T02:47:39;16.50;99.90
2010;DHT22;1008;47.404;8.502;2023-05-07T02:50:08;16.60;99.90
2010;DHT22;1008;47.404;8.502;2023-05-07T02:52:35;16.50;99.90
2010;DHT22;1008;47.404;8.502;2023-05-07T02:55:02;16.50;99.90
2010;DHT22;1008;47.404;8.502;2023-05-07T02:57:29;16.50;99.90
2010;DHT22;1008;47.404;8.502;2023-05-07T02:59:57;16.40;99.90
2010;DHT22;1008;47.404;8.502;2023-05-07T03:02:24;16.30;99.90
2010;DHT22;1008;47.404;8.502;2023-05-07T03:04:50;16.30;99.90
2010;DHT22;1008;47.404;8.502;2023-05-07T03:07:19;16.20;99.90
2010;DHT22;1008;47.404;8.502;2023-05-07T03:09:46;16.20;99.90
2010;DHT22;1008;47.404;8.502;2023-05-07T03:12:12;16.00;99.90
2010;DHT22;1008;47.404;8.502;2023-05-07T03:14:39;16.00;99.90
2010;DHT22;1008;47.404;8.502;2023-05-07T03:17:06;15.90;99.90
2010;DHT22;1008;47.404;8.502;2023-05-07T03:19:33;15.90;99.90
2010;DHT22;1008;47.404;8.502;2023-05-07T03:21:59;15.80;99.90
2010;DHT22;1008;47.404;8.502;2023-05-07T03:24:27;15.70;99.90
2010;DHT22;1008;47.404;8.502;2023-05-07T03:26:54;15.70;99.90
2010;DHT22;1008;47.404;8.502;2023-05-07T03:29:22;15.60;99.90
2010;DHT22;1008;47.404;8.502;2023-05-07T03:31:49;15.60;99.90
2010;DHT22;1008;47.404;8.502;2023-05-07T03:34:16;15.60;99.90
2010;DHT22;1008;47.404;8.502;2023-05-07T03:36:47;15.60;99.90
2010;DHT22;1008;47.404;8.502;2023-05-07T03:39:14;15.60;99.90
2010;DHT22;1008;47.404;8.502;2023-05-07T03:41:42;15.50;99.90
2010;DHT22;1008;47.404;8.502;2023-05-07T03:44:09;15.60;99.90
2010;DHT22;1008;47.404;8.502;2023-05-07T03:46:37;15.70;99.90
2010;DHT22;1008;47.404;8.502;2023-05-07T03:49:04;15.70;99.90
2010;DHT22;1008;47.404;8.502;2023-05-07T03:51:31;15.70;99.90
2010;DHT22;1008;47.404;8.502;2023-05-07T03:53:57;15.50;99.90
2010;DHT22;1008;47.404;8.502;2023-05-07T03:56:24;15.40;99.90
2010;DHT22;1008;47.404;8.502;2023-05-07T03:58:54;15.50;99.90
2010;DHT22;1008;47.404;8.502;2023-05-07T04:01:21;15.30;99.90
2010;DHT22;1008;47.404;8.502;2023-05-07T04:03:48;15.20;99.90
2010;DHT22;1008;47.404;8.502;2023-05-07T04:06:15;15.30;99.90
2010;DHT22;1008;47.404;8.502;2023-05-07T04:08:42;15.40;99.90
2010;DHT22;1008;47.404;8.502;2023-05-07T04:11:09;15.40;99.90
2010;DHT22;1008;47.404;8.502;2023-05-07T04:13:36;15.50;99.90
2010;DHT22;1008;47.404;8.502;2023-05-07T04:16:05;15.70;99.90
2010;DHT22;1008;47.404;8.502;2023-05-07T04:18:31;15.60;99.90
2010;DHT22;1008;47.404;8.502;2023-05-07T04:20:58;15.70;99.90
2010;DHT22;1008;47.404;8.502;2023-05-07T04:23:25;16.00;99.90
2010;DHT22;1008;47.404;8.502;2023-05-07T04:25:52;15.60;99.90
2010;DHT22;1008;47.404;8.502;2023-05-07T04:28:19;15.60;99.90
2010;DHT22;1008;47.404;8.502;2023-05-07T04:30:46;15.60;99.90
2010;DHT22;1008;47.404;8.502;2023-05-07T04:33:15;15.80;99.90
2010;DHT22;1008;47.404;8.502;2023-05-07T04:35:42;15.70;99.90
2010;DHT22;1008;47.404;8.502;2023-05-07T04:38:09;15.90;99.90
2010;DHT22;1008;47.404;8.502;2023-05-07T04:40:36;16.00;99.90
2010;DHT22;1008;47.404;8.502;2023-05-07T04:43:04;16.20;99.90
2010;DHT22;1008;47.404;8.502;2023-05-07T04:45:31;16.10;99.90
2010;DHT22;1008;47.404;8.502;2023-05-07T04:47:58;15.80;99.90
2010;DHT22;1008;47.404;8.502;2023-05-07T04:50:26;15.70;99.90
2010;DHT22;1008;47.404;8.502;2023-05-07T04:52:53;15.60;99.90
2010;DHT22;1008;47.404;8.502;2023-05-07T04:55:19;15.70;99.90
2010;DHT22;1008;47.404;8.502;2023-05-07T04:57:46;15.70;99.90
2010;DHT22;1008;47.404;8.502;2023-05-07T05:00:13;16.20;99.90
2010;DHT22;1008;47.404;8.502;2023-05-07T05:02:40;15.90;99.90
2010;DHT22;1008;47.404;8.502;2023-05-07T05:05:07;15.90;99.90
2010;DHT22;1008;47.404;8.502;2023-05-07T05:07:36;16.00;99.90
2010;DHT22;1008;47.404;8.502;2023-05-07T05:10:04;16.40;99.90
2010;DHT22;1008;47.404;8.502;2023-05-07T05:12:31;16.30;99.90
2010;DHT22;1008;47.404;8.502;2023-05-07T05:14:58;16.40;99.90
2010;DHT22;1008;47.404;8.502;2023-05-07T05:17:25;16.30;99.90
2010;DHT22;1008;47.404;8.502;2023-05-07T05:19:51;16.20;99.90
2010;DHT22;1008;47.404;8.502;2023-05-07T05:22:18;16.10;99.90
2010;DHT22;1008;47.404;8.502;2023-05-07T05:24:46;16.00;99.90
2010;DHT22;1008;47.404;8.502;2023-05-07T05:27:13;16.20;99.90
2010;DHT22;1008;47.404;8.502;2023-05-07T05:29:40;15.90;99.90
2010;DHT22;1008;47.404;8.502;2023-05-07T05:32:06;15.90;99.90
2010;DHT22;1008;47.404;8.502;2023-05-07T05:34:33;16.00;99.90
2010;DHT22;1008;47.404;8.502;2023-05-07T05:37:00;16.00;99.90
2010;DHT22;1008;47.404;8.502;2023-05-07T05:39:27;16.10;99.90
2010;DHT22;1008;47.404;8.502;2023-05-07T05:41:55;16.20;99.90
2010;DHT22;1008;47.404;8.502;2023-05-07T05:44:21;16.30;99.90
2010;DHT22;1008;47.404;8.502;2023-05-07T05:46:48;16.20;99.90
2010;DHT22;1008;47.404;8.502;2023-05-07T05:49:15;16.20;99.90
2010;DHT22;1008;47.404;8.502;2023-05-07T05:51:42;15.80;99.90
2010;DHT22;1008;47.404;8.502;2023-05-07T05:54:09;15.70;99.90
2010;DHT22;1008;47.404;8.502;2023-05-07T05:56:36;15.90;99.90
2010;DHT22;1008;47.404;8.502;2023-05-07T05:59:05;15.80;99.90
2010;DHT22;1008;47.404;8.502;2023-05-07T06:01:32;15.80;99.90
2010;DHT22;1008;47.404;8.502;2023-05-07T06:03:59;15.80;99.90
2010;DHT22;1008;47.404;8.502;2023-05-07T06:06:26;15.60;99.90
2010;DHT22;1008;47.404;8.502;2023-05-07T06:08:52;15.70;99.90
2010;DHT22;1008;47.404;8.502;2023-05-07T06:11:19;15.70;99.90
2010;DHT22;1008;47.404;8.502;2023-05-07T06:13:46;15.60;99.90
2010;DHT22;1008;47.404;8.502;2023-05-07T06:16:15;15.80;99.90
2010;DHT22;1008;47.404;8.502;2023-05-07T06:18:41;15.70;99.90
2010;DHT22;1008;47.404;8.502;2023-05-07T06:21:09;15.80;99.90
2010;DHT22;1008;47.404;8.502;2023-05-07T06:23:36;15.70;99.90
2010;DHT22;1008;47.404;8.502;2023-05-07T06:26:03;15.60;99.90
2010;DHT22;1008;47.404;8.502;2023-05-07T06:28:29;15.60;99.90
2010;DHT22;1008;47.404;8.502;2023-05-07T06:31:11;15.70;99.90
2010;DHT22;1008;47.404;8.502;2023-05-07T06:33:39;15.50;99.90
2010;DHT22;1008;47.404;8.502;2023-05-07T06:36:06;16.00;99.90
2010;DHT22;1008;47.404;8.502;2023-05-07T06:38:33;15.80;99.90
2010;DHT22;1008;47.404;8.502;2023-05-07T06:41:00;15.90;99.90
2010;DHT22;1008;47.404;8.502;2023-05-07T06:43:26;16.10;99.90
2010;DHT22;1008;47.404;8.502;2023-05-07T06:45:53;16.20;99.90
2010;DHT22;1008;47.404;8.502;2023-05-07T06:48:20;16.30;99.90
2010;DHT22;1008;47.404;8.502;2023-05-07T06:50:48;16.60;99.90
2010;DHT22;1008;47.404;8.502;2023-05-07T06:53:15;16.90;99.90
2010;DHT22;1008;47.404;8.502;2023-05-07T06:55:41;17.00;99.90
2010;DHT22;1008;47.404;8.502;2023-05-07T06:58:08;17.10;99.90
2010;DHT22;1008;47.404;8.502;2023-05-07T07:00:35;17.00;99.90
2010;DHT22;1008;47.404;8.502;2023-05-07T07:03:02;17.30;99.90
2010;DHT22;1008;47.404;8.502;2023-05-07T07:05:28;17.30;99.90
2010;DHT22;1008;47.404;8.502;2023-05-07T07:07:56;17.90;99.90
2010;DHT22;1008;47.404;8.502;2023-05-07T07:10:23;17.90;99.90
2010;DHT22;1008;47.404;8.502;2023-05-07T07:12:50;18.00;99.90
2010;DHT22;1008;47.404;8.502;2023-05-07T07:15:19;18.00;99.90
2010;DHT22;1008;47.404;8.502;2023-05-07T07:17:46;17.90;99.90
2010;DHT22;1008;47.404;8.502;2023-05-07T07:20:13;17.90;99.90
2010;DHT22;1008;47.404;8.502;2023-05-07T07:22:39;18.10;99.90
2010;DHT22;1008;47.404;8.502;2023-05-07T07:25:08;18.20;99.90
2010;DHT22;1008;47.404;8.502;2023-05-07T07:27:36;18.10;99.90
2010;DHT22;1008;47.404;8.502;2023-05-07T07:30:06;18.30;99.90
2010;DHT22;1008;47.404;8.502;2023-05-07T07:32:34;18.30;99.90
2010;DHT22;1008;47.404;8.502;2023-05-07T07:35:01;18.30;99.90
2010;DHT22;1008;47.404;8.502;2023-05-07T07:37:28;18.60;99.90
2010;DHT22;1008;47.404;8.502;2023-05-07T07:39:55;18.70;99.90
2010;DHT22;1008;47.404;8.502;2023-05-07T07:42:23;18.80;99.90
2010;DHT22;1008;47.404;8.502;2023-05-07T07:44:50;18.70;99.90
2010;DHT22;1008;47.404;8.502;2023-05-07T07:47:17;18.70;99.90
2010;DHT22;1008;47.404;8.502;2023-05-07T07:49:43;19.10;99.90
2010;DHT22;1008;47.404;8.502;2023-05-07T07:52:10;18.60;99.90
2010;DHT22;1008;47.404;8.502;2023-05-07T07:54:37;18.50;99.90
2010;DHT22;1008;47.404;8.502;2023-05-07T07:57:05;18.30;99.90
2010;DHT22;1008;47.404;8.502;2023-05-07T07:59:33;18.60;99.90
2010;DHT22;1008;47.404;8.502;2023-05-07T08:01:59;18.60;99.90
2010;DHT22;1008;47.404;8.502;2023-05-07T08:04:26;18.60;99.90
2010;DHT22;1008;47.404;8.502;2023-05-07T08:06:53;18.60;99.90
2010;DHT22;1008;47.404;8.502;2023-05-07T08:09:21;18.80;99.90
2010;DHT22;1008;47.404;8.502;2023-05-07T08:11:48;19.10;99.90
2010;DHT22;1008;47.404;8.502;2023-05-07T08:14:42;19.30;99.90
2010;DHT22;1008;47.404;8.502;2023-05-07T08:17:09;19.50;99.90
2010;DHT22;1008;47.404;8.502;2023-05-07T08:19:36;19.70;99.90
2010;DHT22;1008;47.404;8.502;2023-05-07T08:22:03;19.30;99.90
2010;DHT22;1008;47.404;8.502;2023-05-07T08:24:30;19.40;99.90
2010;DHT22;1008;47.404;8.502;2023-05-07T08:26:56;19.70;99.90
2010;DHT22;1008;47.404;8.502;2023-05-07T08:29:23;19.80;99.90
2010;DHT22;1008;47.404;8.502;2023-05-07T08:31:51;19.80;99.90
2010;DHT22;1008;47.404;8.502;2023-05-07T08:34:18;19.80;99.90
2010;DHT22;1008;47.404;8.502;2023-05-07T08:36:45;19.70;99.90
2010;DHT22;1008;47.404;8.502;2023-05-07T08:39:14;19.70;99.90
2010;DHT22;1008;47.404;8.502;2023-05-07T08:41:44;20.10;99.90
2010;DHT22;1008;47.404;8.502;2023-05-07T08:44:12;20.20;99.90
2010;DHT22;1008;47.404;8.502;2023-05-07T08:46:41;20.20;99.90
2010;DHT22;1008;47.404;8.502;2023-05-07T08:49:10;20.20;99.90
2010;DHT22;1008;47.404;8.502;2023-05-07T08:51:37;20.00;99.90
2010;DHT22;1008;47.404;8.502;2023-05-07T08:54:04;19.70;99.90
2010;DHT22;1008;47.404;8.502;2023-05-07T08:56:32;19.80;99.90
2010;DHT22;1008;47.404;8.502;2023-05-07T08:58:59;20.10;99.90
2010;DHT22;1008;47.404;8.502;2023-05-07T09:01:26;20.30;99.90
2010;DHT22;1008;47.404;8.502;2023-05-07T09:03:53;20.50;99.90
2010;DHT22;1008;47.404;8.502;2023-05-07T09:06:21;20.80;99.90
2010;DHT22;1008;47.404;8.502;2023-05-07T09:08:52;21.20;99.90
2010;DHT22;1008;47.404;8.502;2023-05-07T09:11:20;21.10;99.90
2010;DHT22;1008;47.404;8.502;2023-05-07T09:13:48;21.10;99.90
2010;DHT22;1008;47.404;8.502;2023-05-07T09:16:15;20.90;99.90
2010;DHT22;1008;47.404;8.502;2023-05-07T09:18:42;21.50;99.90
2010;DHT22;1008;47.404;8.502;2023-05-07T09:21:10;21.70;99.90
2010;DHT22;1008;47.404;8.502;2023-05-07T09:23:38;21.70;99.90
2010;DHT22;1008;47.404;8.502;2023-05-07T09:26:06;21.40;99.90
2010;DHT22;1008;47.404;8.502;2023-05-07T09:28:38;21.50;99.90
2010;DHT22;1008;47.404;8.502;2023-05-07T09:31:06;21.60;99.90
2010;DHT22;1008;47.404;8.502;2023-05-07T09:33:32;21.90;99.90
2010;DHT22;1008;47.404;8.502;2023-05-07T09:36:02;22.20;99.90
2010;DHT22;1008;47.404;8.502;2023-05-07T09:38:30;22.00;99.90
2010;DHT22;1008;47.404;8.502;2023-05-07T09:41:06;21.50;99.90
2010;DHT22;1008;47.404;8.502;2023-05-07T09:43:33;21.00;99.90
2010;DHT22;1008;47.404;8.502;2023-05-07T09:46:04;21.00;99.90
2010;DHT22;1008;47.404;8.502;2023-05-07T09:48:36;21.20;99.90
2010;DHT22;1008;47.404;8.502;2023-05-07T09:51:11;21.20;99.90
2010;DHT22;1008;47.404;8.502;2023-05-07T09:53:40;20.80;99.90
2010;DHT22;1008;47.404;8.502;2023-05-07T09:56:09;20.70;99.90
2010;DHT22;1008;47.404;8.502;2023-05-07T09:58:39;21.00;99.90
2010;DHT22;1008;47.404;8.502;2023-05-07T10:01:07;21.10;99.90
2010;DHT22;1008;47.404;8.502;2023-05-07T10:03:36;21.40;99.90
2010;DHT22;1008;47.404;8.502;2023-05-07T10:06:04;21.30;99.90
2010;DHT22;1008;47.404;8.502;2023-05-07T10:08:31;21.20;99.90
2010;DHT22;1008;47.404;8.502;2023-05-07T10:10:59;21.40;99.90
2010;DHT22;1008;47.404;8.502;2023-05-07T10:13:28;21.30;99.90
2010;DHT22;1008;47.404;8.502;2023-05-07T10:15:56;21.40;99.90
2010;DHT22;1008;47.404;8.502;2023-05-07T10:18:24;21.50;99.90
2010;DHT22;1008;47.404;8.502;2023-05-07T10:20:57;21.20;99.90
2010;DHT22;1008;47.404;8.502;2023-05-07T10:23:28;21.10;99.90
2010;DHT22;1008;47.404;8.502;2023-05-07T10:25:56;21.30;99.90
2010;DHT22;1008;47.404;8.502;2023-05-07T10:28:25;21.40;99.90
2010;DHT22;1008;47.404;8.502;2023-05-07T10:31:03;21.20;99.90
2010;DHT22;1008;47.404;8.502;2023-05-07T10:33:34;21.20;99.90
2010;DHT22;1008;47.404;8.502;2023-05-07T10:36:05;20.90;99.90
2010;DHT22;1008;47.404;8.502;2023-05-07T10:38:33;20.90;99.90
2010;DHT22;1008;47.404;8.502;2023-05-07T10:41:00;20.90;99.90
2010;DHT22;1008;47.404;8.502;2023-05-07T10:43:39;20.80;99.90
2010;DHT22;1008;47.404;8.502;2023-05-07T10:46:13;21.00;99.90
2010;DHT22;1008;47.404;8.502;2023-05-07T10:49:10;21.30;99.90
2010;DHT22;1008;47.404;8.502;2023-05-07T10:51:38;21.10;99.90
2010;DHT22;1008;47.404;8.502;2023-05-07T10:54:22;21.10;99.90
2010;DHT22;1008;47.404;8.502;2023-05-07T10:56:49;21.30;99.90
2010;DHT22;1008;47.404;8.502;2023-05-07T10:59:34;21.30;99.90
2010;DHT22;1008;47.404;8.502;2023-05-07T11:02:08;21.30;99.90
2010;DHT22;1008;47.404;8.502;2023-05-07T11:04:37;21.50;99.90
2010;DHT22;1008;47.404;8.502;2023-05-07T11:07:27;21.60;99.90
2010;DHT22;1008;47.404;8.502;2023-05-07T11:09:55;21.40;99.90
2010;DHT22;1008;47.404;8.502;2023-05-07T11:12:53;21.30;99.90
2010;DHT22;1008;47.404;8.502;2023-05-07T11:15:40;21.40;99.90
2010;DHT22;1008;47.404;8.502;2023-05-07T11:18:11;21.60;99.90
2010;DHT22;1008;47.404;8.502;2023-05-07T11:20:56;22.00;99.90
2010;DHT22;1008;47.404;8.502;2023-05-07T11:23:55;22.20;99.90
2010;DHT22;1008;47.404;8.502;2023-05-07T11:26:22;22.30;99.90
2010;DHT22;1008;47.404;8.502;2023-05-07T11:28:49;22.50;99.90
2010;DHT22;1008;47.404;8.502;2023-05-07T11:31:21;22.40;99.90
2010;DHT22;1008;47.404;8.502;2023-05-07T11:33:49;22.50;99.90
2010;DHT22;1008;47.404;8.502;2023-05-07T11:36:17;22.80;99.90
2010;DHT22;1008;47.404;8.502;2023-05-07T11:38:44;23.20;99.90
2010;DHT22;1008;47.404;8.502;2023-05-07T11:41:11;22.80;99.90
2010;DHT22;1008;47.404;8.502;2023-05-07T11:43:40;22.20;99.90
2010;DHT22;1008;47.404;8.502;2023-05-07T11:46:20;22.00;99.90
2010;DHT22;1008;47.404;8.502;2023-05-07T11:48:48;22.30;99.90
2010;DHT22;1008;47.404;8.502;2023-05-07T11:51:19;22.30;99.90
2010;DHT22;1008;47.404;8.502;2023-05-07T11:53:46;22.10;99.90
2010;DHT22;1008;47.404;8.502;2023-05-07T11:56:15;22.50;99.90
2010;DHT22;1008;47.404;8.502;2023-05-07T11:58:43;22.60;99.90
2010;DHT22;1008;47.404;8.502;2023-05-07T12:01:11;23.10;99.90
2010;DHT22;1008;47.404;8.502;2023-05-07T12:03:41;23.10;99.90
2010;DHT22;1008;47.404;8.502;2023-05-07T12:06:10;23.00;99.90
2010;DHT22;1008;47.404;8.502;2023-05-07T12:08:38;23.50;99.90
2010;DHT22;1008;47.404;8.502;2023-05-07T12:11:08;23.70;99.90
2010;DHT22;1008;47.404;8.502;2023-05-07T12:13:37;23.80;99.90
2010;DHT22;1008;47.404;8.502;2023-05-07T12:16:05;23.40;99.90
2010;DHT22;1008;47.404;8.502;2023-05-07T12:18:33;23.20;99.90
2010;DHT22;1008;47.404;8.502;2023-05-07T12:21:00;23.00;99.90
2010;DHT22;1008;47.404;8.502;2023-05-07T12:23:29;23.40;99.90
2010;DHT22;1008;47.404;8.502;2023-05-07T12:25:56;23.10;99.90
2010;DHT22;1008;47.404;8.502;2023-05-07T12:28:23;23.50;99.90
2010;DHT22;1008;47.404;8.502;2023-05-07T12:30:50;24.00;99.90
2010;DHT22;1008;47.404;8.502;2023-05-07T12:33:18;24.30;99.90
2010;DHT22;1008;47.404;8.502;2023-05-07T12:35:47;24.70;99.90
2010;DHT22;1008;47.404;8.502;2023-05-07T12:38:15;24.20;99.90
2010;DHT22;1008;47.404;8.502;2023-05-07T12:40:44;24.30;99.90
2010;DHT22;1008;47.404;8.502;2023-05-07T12:43:16;24.00;99.90
2010;DHT22;1008;47.404;8.502;2023-05-07T12:45:44;23.90;99.90
2010;DHT22;1008;47.404;8.502;2023-05-07T12:48:11;23.50;99.90
2010;DHT22;1008;47.404;8.502;2023-05-07T12:50:38;23.30;99.90
2010;DHT22;1008;47.404;8.502;2023-05-07T12:53:07;23.20;99.90
2010;DHT22;1008;47.404;8.502;2023-05-07T12:55:41;23.50;99.90
2010;DHT22;1008;47.404;8.502;2023-05-07T12:58:15;23.50;99.90
2010;DHT22;1008;47.404;8.502;2023-05-07T13:00:42;23.60;99.90
2010;DHT22;1008;47.404;8.502;2023-05-07T13:03:09;23.40;99.90
2010;DHT22;1008;47.404;8.502;2023-05-07T13:05:36;22.90;99.90
2010;DHT22;1008;47.404;8.502;2023-05-07T13:08:03;22.80;99.90
2010;DHT22;1008;47.404;8.502;2023-05-07T13:10:30;23.00;99.90
2010;DHT22;1008;47.404;8.502;2023-05-07T13:12:58;23.30;99.90
2010;DHT22;1008;47.404;8.502;2023-05-07T13:15:26;23.10;99.90
2010;DHT22;1008;47.404;8.502;2023-05-07T13:17:53;22.80;99.90
2010;DHT22;1008;47.404;8.502;2023-05-07T13:20:20;22.70;99.90
2010;DHT22;1008;47.404;8.502;2023-05-07T13:22:47;22.40;99.90
2010;DHT22;1008;47.404;8.502;2023-05-07T13:25:14;21.90;99.90
2010;DHT22;1008;47.404;8.502;2023-05-07T13:27:41;21.90;99.90
2010;DHT22;1008;47.404;8.502;2023-05-07T13:30:08;22.10;99.90
2010;DHT22;1008;47.404;8.502;2023-05-07T13:32:36;22.20;99.90
2010;DHT22;1008;47.404;8.502;2023-05-07T13:35:03;22.40;99.90
2010;DHT22;1008;47.404;8.502;2023-05-07T13:37:30;22.90;99.90
2010;DHT22;1008;47.404;8.502;2023-05-07T13:39:57;23.70;99.90
2010;DHT22;1008;47.404;8.502;2023-05-07T13:42:23;23.30;99.90
2010;DHT22;1008;47.404;8.502;2023-05-07T13:44:50;23.30;99.90
2010;DHT22;1008;47.404;8.502;2023-05-07T13:47:17;23.30;99.90
2010;DHT22;1008;47.404;8.502;2023-05-07T13:49:45;22.80;99.90
2010;DHT22;1008;47.404;8.502;2023-05-07T13:52:14;22.80;99.90
2010;DHT22;1008;47.404;8.502;2023-05-07T13:54:41;22.90;99.90
2010;DHT22;1008;47.404;8.502;2023-05-07T13:57:08;23.10;99.90
2010;DHT22;1008;47.404;8.502;2023-05-07T13:59:35;23.30;99.90
2010;DHT22;1008;47.404;8.502;2023-05-07T14:02:01;23.20;99.90
2010;DHT22;1008;47.404;8.502;2023-05-07T14:04:28;22.70;99.90
2010;DHT22;1008;47.404;8.502;2023-05-07T14:06:56;22.30;99.90
2010;DHT22;1008;47.404;8.502;2023-05-07T14:09:23;21.80;99.90
2010;DHT22;1008;47.404;8.502;2023-05-07T14:11:50;21.20;99.90
2010;DHT22;1008;47.404;8.502;2023-05-07T14:14:17;21.00;99.90
2010;DHT22;1008;47.404;8.502;2023-05-07T14:16:44;20.80;99.90
2010;DHT22;1008;47.404;8.502;2023-05-07T14:19:11;20.40;99.90
2010;DHT22;1008;47.404;8.502;2023-05-07T14:21:38;20.20;99.90
2010;DHT22;1008;47.404;8.502;2023-05-07T14:24:07;20.10;99.90
2010;DHT22;1008;47.404;8.502;2023-05-07T14:26:34;20.00;99.90
2010;DHT22;1008;47.404;8.502;2023-05-07T14:29:01;19.70;99.90
2010;DHT22;1008;47.404;8.502;2023-05-07T14:31:28;19.60;99.90
2010;DHT22;1008;47.404;8.502;2023-05-07T14:33:55;19.50;99.90
2010;DHT22;1008;47.404;8.502;2023-05-07T14:36:23;19.40;99.90
2010;DHT22;1008;47.404;8.502;2023-05-07T14:38:51;19.50;99.90
2010;DHT22;1008;47.404;8.502;2023-05-07T14:41:21;19.50;99.90
2010;DHT22;1008;47.404;8.502;2023-05-07T14:43:48;19.70;99.90
2010;DHT22;1008;47.404;8.502;2023-05-07T14:46:16;19.70;99.90
2010;DHT22;1008;47.404;8.502;2023-05-07T14:48:43;19.80;99.90
2010;DHT22;1008;47.404;8.502;2023-05-07T14:51:11;19.60;99.90
2010;DHT22;1008;47.404;8.502;2023-05-07T14:53:38;19.50;99.90
2010;DHT22;1008;47.404;8.502;2023-05-07T14:56:05;19.40;99.90
2010;DHT22;1008;47.404;8.502;2023-05-07T14:58:33;19.30;99.90
2010;DHT22;1008;47.404;8.502;2023-05-07T15:01:00;19.10;99.90
2010;DHT22;1008;47.404;8.502;2023-05-07T15:03:27;19.50;99.90
2010;DHT22;1008;47.404;8.502;2023-05-07T15:05:54;19.20;99.90
2010;DHT22;1008;47.404;8.502;2023-05-07T15:08:22;18.90;99.90
2010;DHT22;1008;47.404;8.502;2023-05-07T15:10:48;18.80;99.90
2010;DHT22;1008;47.404;8.502;2023-05-07T15:13:15;18.90;99.90
2010;DHT22;1008;47.404;8.502;2023-05-07T15:15:44;18.80;99.90
2010;DHT22;1008;47.404;8.502;2023-05-07T15:18:11;19.10;99.90
2010;DHT22;1008;47.404;8.502;2023-05-07T15:20:38;18.90;99.90
2010;DHT22;1008;47.404;8.502;2023-05-07T15:23:05;18.90;99.90
2010;DHT22;1008;47.404;8.502;2023-05-07T15:25:35;18.70;99.90
2010;DHT22;1008;47.404;8.502;2023-05-07T15:28:02;18.40;99.90
2010;DHT22;1008;47.404;8.502;2023-05-07T15:30:29;18.30;99.90
2010;DHT22;1008;47.404;8.502;2023-05-07T15:32:57;18.10;99.90
2010;DHT22;1008;47.404;8.502;2023-05-07T15:35:24;18.10;99.90
2010;DHT22;1008;47.404;8.502;2023-05-07T15:37:51;18.10;99.90
2010;DHT22;1008;47.404;8.502;2023-05-07T15:40:18;18.10;99.90
2010;DHT22;1008;47.404;8.502;2023-05-07T15:42:45;18.10;99.90
2010;DHT22;1008;47.404;8.502;2023-05-07T15:45:12;18.00;99.90
2010;DHT22;1008;47.404;8.502;2023-05-07T15:47:39;18.00;99.90
2010;DHT22;1008;47.404;8.502;2023-05-07T15:50:08;17.90;99.90
2010;DHT22;1008;47.404;8.502;2023-05-07T15:52:35;17.80;99.90
2010;DHT22;1008;47.404;8.502;2023-05-07T15:55:04;18.00;99.90
2010;DHT22;1008;47.404;8.502;2023-05-07T15:57:31;17.90;99.90
2010;DHT22;1008;47.404;8.502;2023-05-07T15:59:58;18.30;99.90
2010;DHT22;1008;47.404;8.502;2023-05-07T16:02:25;17.90;99.90
2010;DHT22;1008;47.404;8.502;2023-05-07T16:04:52;17.90;99.90
2010;DHT22;1008;47.404;8.502;2023-05-07T16:07:20;17.90;99.90